sensor_id;sensor_type;location;lat;lon;timestamp;noise_LAeq;noise_LA_min;noise_LA_max;noise_LA01;noise_LA95
77134;Laerm;25175;50.140;18.990;2023-10-13T00:01:11;36.25;33.91;43.06;;
77134;Laerm;25175;50.140;18.990;2023-10-13T00:04:16;36.99;34.17;42.79;;
77134;Laerm;25175;50.140;18.990;2023-10-13T00:07:23;37.81;34.34;52.05;;
77134;Laerm;25175;50.140;18.990;2023-10-13T00:10:29;36.98;33.91;42.92;;
77134;Laerm;25175;50.140;18.990;2023-10-13T00:13:35;37.16;34.47;42.71;;
77134;Laerm;25175;50.140;18.990;2023-10-13T00:16:55;37.47;34.38;46.47;;
77134;Laerm;25175;50.140;18.990;2023-10-13T00:20:07;38.12;34.89;44.07;;
77134;Laerm;25175;50.140;18.990;2023-10-13T00:23:18;37.06;34.58;43.04;;
77134;Laerm;25175;50.140;18.990;2023-10-13T00:26:27;36.73;34.54;42.44;;
77134;Laerm;25175;50.140;18.990;2023-10-13T00:29:35;37.04;34.37;42.33;;
77134;Laerm;25175;50.140;18.990;2023-10-13T00:32:43;37.83;34.72;45.52;;
77134;Laerm;25175;50.140;18.990;2023-10-13T00:35:54;36.79;34.43;39.91;;
77134;Laerm;25175;50.140;18.990;2023-10-13T00:39:00;38.08;35.14;43.94;;
77134;Laerm;25175;50.140;18.990;2023-10-13T00:42:06;38.71;35.15;45.00;;
77134;Laerm;25175;50.140;18.990;2023-10-13T00:45:20;38.15;34.72;44.06;;
77134;Laerm;25175;50.140;18.990;2023-10-13T00:48:30;37.90;34.77;42.88;;
77134;Laerm;25175;50.140;18.990;2023-10-13T00:51:36;37.20;34.53;42.01;;
77134;Laerm;25175;50.140;18.990;2023-10-13T00:54:45;37.41;34.74;41.54;;
77134;Laerm;25175;50.140;18.990;2023-10-13T00:57:50;38.79;35.57;44.35;;
77134;Laerm;25175;50.140;18.990;2023-10-13T01:01:00;37.51;34.82;42.13;;
77134;Laerm;25175;50.140;18.990;2023-10-13T01:04:22;37.39;34.91;44.34;;
77134;Laerm;25175;50.140;18.990;2023-10-13T01:07:30;38.60;35.29;43.08;;
77134;Laerm;25175;50.140;18.990;2023-10-13T01:10:32;38.38;35.58;42.89;;
77134;Laerm;25175;50.140;18.990;2023-10-13T01:13:39;38.65;35.40;44.47;;
77134;Laerm;25175;50.140;18.990;2023-10-13T01:16:44;38.59;35.96;42.92;;
77134;Laerm;25175;50.140;18.990;2023-10-13T01:19:49;38.99;35.79;43.64;;
77134;Laerm;25175;50.140;18.990;2023-10-13T01:22:59;39.31;36.16;44.69;;
77134;Laerm;25175;50.140;18.990;2023-10-13T01:26:06;39.05;35.96;43.60;;
77134;Laerm;25175;50.140;18.990;2023-10-13T01:29:11;38.91;36.02;44.12;;
77134;Laerm;25175;50.140;18.990;2023-10-13T01:32:23;38.89;35.84;46.17;;
77134;Laerm;25175;50.140;18.990;2023-10-13T01:35:27;39.03;35.82;45.15;;
77134;Laerm;25175;50.140;18.990;2023-10-13T01:38:38;39.72;36.10;44.59;;
77134;Laerm;25175;50.140;18.990;2023-10-13T01:41:47;39.58;36.19;43.39;;
77134;Laerm;25175;50.140;18.990;2023-10-13T01:44:57;41.28;36.77;51.64;;
77134;Laerm;25175;50.140;18.990;2023-10-13T01:48:07;39.84;36.34;46.30;;
77134;Laerm;25175;50.140;18.990;2023-10-13T01:51:10;39.55;36.57;50.65;;
77134;Laerm;25175;50.140;18.990;2023-10-13T01:54:15;39.87;36.78;46.21;;
77134;Laerm;25175;50.140;18.990;2023-10-13T01:57:24;38.97;35.93;47.47;;
77134;Laerm;25175;50.140;18.990;2023-10-13T02:00:29;40.17;36.09;50.98;;
77134;Laerm;25175;50.140;18.990;2023-10-13T02:03:33;38.80;35.65;49.24;;
77134;Laerm;25175;50.140;18.990;2023-10-13T02:06:42;38.51;34.78;42.35;;
77134;Laerm;25175;50.140;18.990;2023-10-13T02:09:47;38.42;35.68;44.37;;
77134;Laerm;25175;50.140;18.990;2023-10-13T02:12:55;39.30;36.36;54.03;;
77134;Laerm;25175;50.140;18.990;2023-10-13T02:16:00;38.48;34.97;45.87;;
77134;Laerm;25175;50.140;18.990;2023-10-13T02:19:05;38.73;35.97;45.38;;
77134;Laerm;25175;50.140;18.990;2023-10-13T02:22:17;38.24;35.45;47.88;;
77134;Laerm;25175;50.140;18.990;2023-10-13T02:25:31;38.50;35.75;42.28;;
77134;Laerm;25175;50.140;18.990;2023-10-13T02:28:40;38.63;35.56;48.95;;
77134;Laerm;25175;50.140;18.990;2023-10-13T02:31:45;40.51;36.90;52.88;;
77134;Laerm;25175;50.140;18.990;2023-10-13T02:34:57;45.88;36.03;65.99;;
77134;Laerm;25175;50.140;18.990;2023-10-13T02:38:07;38.95;36.14;45.72;;
77134;Laerm;25175;50.140;18.990;2023-10-13T02:41:20;39.16;35.83;46.34;;
77134;Laerm;25175;50.140;18.990;2023-10-13T02:44:29;39.07;35.72;46.90;;
77134;Laerm;25175;50.140;18.990;2023-10-13T02:47:33;38.81;35.97;45.70;;
77134;Laerm;25175;50.140;18.990;2023-10-13T02:50:40;38.17;35.44;41.92;;
77134;Laerm;25175;50.140;18.990;2023-10-13T02:53:48;39.95;35.69;50.93;;
77134;Laerm;25175;50.140;18.990;2023-10-13T02:56:54;43.55;35.51;63.02;;
77134;Laerm;25175;50.140;18.990;2023-10-13T03:00:09;38.29;35.26;46.93;;
77134;Laerm;25175;50.140;18.990;2023-10-13T03:03:14;40.11;35.63;53.92;;
77134;Laerm;25175;50.140;18.990;2023-10-13T03:06:22;39.12;36.36;43.11;;
77134;Laerm;25175;50.140;18.990;2023-10-13T03:09:34;39.36;36.68;45.21;;
77134;Laerm;25175;50.140;18.990;2023-10-13T03:12:41;39.77;36.85;46.51;;
77134;Laerm;25175;50.140;18.990;2023-10-13T03:15:52;42.36;36.50;54.72;;
77134;Laerm;25175;50.140;18.990;2023-10-13T03:18:57;39.74;36.92;47.91;;
77134;Laerm;25175;50.140;18.990;2023-10-13T03:22:04;42.49;36.93;53.73;;
77134;Laerm;25175;50.140;18.990;2023-10-13T03:25:12;42.12;36.85;55.50;;
77134;Laerm;25175;50.140;18.990;2023-10-13T03:28:30;44.37;37.28;57.90;;
77134;Laerm;25175;50.140;18.990;2023-10-13T03:31:39;45.69;36.84;63.34;;
77134;Laerm;25175;50.140;18.990;2023-10-13T03:34:48;43.52;38.09;58.21;;
77134;Laerm;25175;50.140;18.990;2023-10-13T03:38:13;41.55;36.34;53.36;;
77134;Laerm;25175;50.140;18.990;2023-10-13T03:41:29;42.75;37.73;53.77;;
77134;Laerm;25175;50.140;18.990;2023-10-13T03:44:39;42.01;37.17;57.04;;
77134;Laerm;25175;50.140;18.990;2023-10-13T03:47:50;40.81;37.72;50.62;;
77134;Laerm;25175;50.140;18.990;2023-10-13T03:50:59;42.88;37.84;56.39;;
77134;Laerm;25175;50.140;18.990;2023-10-13T03:54:08;44.66;37.47;57.83;;
77134;Laerm;25175;50.140;18.990;2023-10-13T03:57:17;42.68;37.00;56.30;;
77134;Laerm;25175;50.140;18.990;2023-10-13T04:00:23;43.34;37.18;55.27;;
77134;Laerm;25175;50.140;18.990;2023-10-13T04:03:32;40.87;36.87;49.72;;
77134;Laerm;25175;50.140;18.990;2023-10-13T04:06:38;41.20;36.71;53.25;;
77134;Laerm;25175;50.140;18.990;2023-10-13T04:09:54;43.13;36.63;54.96;;
77134;Laerm;25175;50.140;18.990;2023-10-13T04:13:13;44.74;37.23;58.62;;
77134;Laerm;25175;50.140;18.990;2023-10-13T04:16:31;45.00;37.08;56.51;;
77134;Laerm;25175;50.140;18.990;2023-10-13T04:19:57;41.49;37.34;51.88;;
77134;Laerm;25175;50.140;18.990;2023-10-13T04:23:29;43.16;37.71;55.46;;
77134;Laerm;25175;50.140;18.990;2023-10-13T04:26:55;42.84;38.17;54.21;;
77134;Laerm;25175;50.140;18.990;2023-10-13T04:30:13;43.85;37.85;54.47;;
77134;Laerm;25175;50.140;18.990;2023-10-13T04:33:30;44.48;38.10;55.56;;
77134;Laerm;25175;50.140;18.990;2023-10-13T04:36:49;45.82;38.08;60.58;;
77134;Laerm;25175;50.140;18.990;2023-10-13T04:39:59;43.68;38.13;55.22;;
77134;Laerm;25175;50.140;18.990;2023-10-13T04:43:12;42.84;38.16;53.03;;
77134;Laerm;25175;50.140;18.990;2023-10-13T04:46:34;45.16;38.45;55.70;;
77134;Laerm;25175;50.140;18.990;2023-10-13T04:49:56;44.35;38.07;55.02;;
77134;Laerm;25175;50.140;18.990;2023-10-13T04:53:04;45.82;37.18;57.02;;
77134;Laerm;25175;50.140;18.990;2023-10-13T04:56:15;45.12;37.51;57.61;;
77134;Laerm;25175;50.140;18.990;2023-10-13T04:59:32;47.03;37.77;57.47;;
77134;Laerm;25175;50.140;18.990;2023-10-13T05:03:04;45.67;37.81;57.56;;
77134;Laerm;25175;50.140;18.990;2023-10-13T05:06:20;46.69;39.28;59.85;;
77134;Laerm;25175;50.140;18.990;2023-10-13T05:09:40;46.87;39.08;61.18;;
77134;Laerm;25175;50.140;18.990;2023-10-13T05:12:57;46.85;38.99;59.61;;
77134;Laerm;25175;50.140;18.990;2023-10-13T05:16:15;44.15;38.94;56.57;;
77134;Laerm;25175;50.140;18.990;2023-10-13T05:19:32;45.82;38.36;62.93;;
77134;Laerm;25175;50.140;18.990;2023-10-13T05:22:49;51.04;39.33;71.04;;
77134;Laerm;25175;50.140;18.990;2023-10-13T05:26:09;47.37;38.85;58.58;;
77134;Laerm;25175;50.140;18.990;2023-10-13T05:29:26;47.44;38.56;58.34;;
77134;Laerm;25175;50.140;18.990;2023-10-13T05:32:43;47.68;39.43;61.21;;
77134;Laerm;25175;50.140;18.990;2023-10-13T05:36:00;54.60;38.39;75.93;;
77134;Laerm;25175;50.140;18.990;2023-10-13T05:39:17;47.30;38.31;58.68;;
77134;Laerm;25175;50.140;18.990;2023-10-13T05:42:37;46.09;37.93;58.69;;
77134;Laerm;25175;50.140;18.990;2023-10-13T05:46:01;47.81;38.29;57.03;;
77134;Laerm;25175;50.140;18.990;2023-10-13T05:49:19;48.63;38.57;61.11;;
77134;Laerm;25175;50.140;18.990;2023-10-13T05:52:35;48.09;38.96;58.74;;
77134;Laerm;25175;50.140;18.990;2023-10-13T05:56:01;49.66;39.39;64.33;;
77134;Laerm;25175;50.140;18.990;2023-10-13T05:59:20;50.71;39.15;66.11;;
77134;Laerm;25175;50.140;18.990;2023-10-13T06:02:38;46.54;38.61;55.71;;
77134;Laerm;25175;50.140;18.990;2023-10-13T06:05:54;47.02;38.36;61.07;;
77134;Laerm;25175;50.140;18.990;2023-10-13T06:09:12;46.72;37.70;61.04;;
77134;Laerm;25175;50.140;18.990;2023-10-13T06:12:29;46.24;37.91;59.22;;
77134;Laerm;25175;50.140;18.990;2023-10-13T06:15:49;48.13;38.44;61.43;;
77134;Laerm;25175;50.140;18.990;2023-10-13T06:19:06;48.04;37.99;58.72;;
77134;Laerm;25175;50.140;18.990;2023-10-13T06:22:23;47.23;38.48;58.82;;
77134;Laerm;25175;50.140;18.990;2023-10-13T06:25:40;47.50;38.18;60.40;;
77134;Laerm;25175;50.140;18.990;2023-10-13T06:28:58;46.71;37.98;60.46;;
77134;Laerm;25175;50.140;18.990;2023-10-13T06:32:05;46.38;37.85;58.32;;
77134;Laerm;25175;50.140;18.990;2023-10-13T06:35:13;47.07;38.18;58.51;;
77134;Laerm;25175;50.140;18.990;2023-10-13T06:38:24;46.94;38.03;60.95;;
77134;Laerm;25175;50.140;18.990;2023-10-13T06:41:33;47.14;37.79;57.13;;
77134;Laerm;25175;50.140;18.990;2023-10-13T06:44:43;48.65;38.18;68.85;;
77134;Laerm;25175;50.140;18.990;2023-10-13T06:47:51;46.08;38.26;65.12;;
77134;Laerm;25175;50.140;18.990;2023-10-13T06:50:58;49.90;38.82;72.40;;
77134;Laerm;25175;50.140;18.990;2023-10-13T06:54:08;47.86;37.47;59.83;;
77134;Laerm;25175;50.140;18.990;2023-10-13T06:57:21;46.82;37.41;59.84;;
77134;Laerm;25175;50.140;18.990;2023-10-13T07:00:27;45.62;37.25;61.22;;
77134;Laerm;25175;50.140;18.990;2023-10-13T07:03:38;44.31;37.43;62.38;;
77134;Laerm;25175;50.140;18.990;2023-10-13T07:06:44;45.33;37.48;57.45;;
77134;Laerm;25175;50.140;18.990;2023-10-13T07:09:52;49.00;37.39;68.11;;
77134;Laerm;25175;50.140;18.990;2023-10-13T07:13:00;47.22;37.94;60.54;;
77134;Laerm;25175;50.140;18.990;2023-10-13T07:16:08;52.15;37.24;72.62;;
77134;Laerm;25175;50.140;18.990;2023-10-13T07:19:17;56.47;37.32;76.02;;
77134;Laerm;25175;50.140;18.990;2023-10-13T07:22:23;46.40;37.20;64.57;;
77134;Laerm;25175;50.140;18.990;2023-10-13T07:25:30;45.35;37.65;61.72;;
77134;Laerm;25175;50.140;18.990;2023-10-13T07:28:38;45.36;37.25;57.86;;
77134;Laerm;25175;50.140;18.990;2023-10-13T07:31:45;44.72;36.81;59.68;;
77134;Laerm;25175;50.140;18.990;2023-10-13T07:34:53;43.64;36.91;56.28;;
77134;Laerm;25175;50.140;18.990;2023-10-13T07:38:00;43.97;36.71;58.87;;
77134;Laerm;25175;50.140;18.990;2023-10-13T07:41:09;43.16;36.53;55.05;;
77134;Laerm;25175;50.140;18.990;2023-10-13T07:44:18;43.67;35.80;56.54;;
77134;Laerm;25175;50.140;18.990;2023-10-13T07:47:26;42.61;36.42;56.63;;
77134;Laerm;25175;50.140;18.990;2023-10-13T07:50:38;44.12;35.88;57.39;;
77134;Laerm;25175;50.140;18.990;2023-10-13T07:53:45;44.09;36.63;57.96;;
77134;Laerm;25175;50.140;18.990;2023-10-13T07:56:51;43.84;36.78;57.64;;
77134;Laerm;25175;50.140;18.990;2023-10-13T07:59:56;43.71;36.92;56.88;;
77134;Laerm;25175;50.140;18.990;2023-10-13T08:03:14;45.62;37.23;57.77;;
77134;Laerm;25175;50.140;18.990;2023-10-13T08:06:34;50.20;36.93;73.96;;
77134;Laerm;25175;50.140;18.990;2023-10-13T08:09:40;45.87;36.84;61.75;;
77134;Laerm;25175;50.140;18.990;2023-10-13T08:12:52;43.99;36.56;56.68;;
77134;Laerm;25175;50.140;18.990;2023-10-13T08:16:01;43.58;36.28;62.87;;
77134;Laerm;25175;50.140;18.990;2023-10-13T08:19:09;45.78;36.31;58.94;;
77134;Laerm;25175;50.140;18.990;2023-10-13T08:22:18;46.33;36.77;59.32;;
77134;Laerm;25175;50.140;18.990;2023-10-13T08:25:37;52.40;36.63;66.04;;
77134;Laerm;25175;50.140;18.990;2023-10-13T08:28:54;43.79;35.45;61.16;;
77134;Laerm;25175;50.140;18.990;2023-10-13T08:31:59;44.00;35.36;60.45;;
77134;Laerm;25175;50.140;18.990;2023-10-13T08:35:16;48.85;37.01;58.60;;
77134;Laerm;25175;50.140;18.990;2023-10-13T08:38:41;47.99;36.38;57.73;;
77134;Laerm;25175;50.140;18.990;2023-10-13T08:41:54;44.57;34.95;58.72;;
77134;Laerm;25175;50.140;18.990;2023-10-13T08:45:15;45.99;35.20;59.85;;
77134;Laerm;25175;50.140;18.990;2023-10-13T08:48:45;44.46;37.70;56.02;;
77134;Laerm;25175;50.140;18.990;2023-10-13T08:51:53;50.08;38.15;70.79;;
77134;Laerm;25175;50.140;18.990;2023-10-13T08:55:32;47.79;41.14;59.08;;
77134;Laerm;25175;50.140;18.990;2023-10-13T08:59:01;46.42;41.12;58.36;;
77134;Laerm;25175;50.140;18.990;2023-10-13T09:02:17;46.70;41.06;56.73;;
77134;Laerm;25175;50.140;18.990;2023-10-13T09:05:26;47.21;38.47;62.85;;
77134;Laerm;25175;50.140;18.990;2023-10-13T09:08:44;44.84;37.65;57.47;;
77134;Laerm;25175;50.140;18.990;2023-10-13T09:12:15;45.70;38.10;64.21;;
77134;Laerm;25175;50.140;18.990;2023-10-13T09:15:30;50.14;35.41;66.21;;
77134;Laerm;25175;50.140;18.990;2023-10-13T09:18:47;43.80;34.47;57.13;;
77134;Laerm;25175;50.140;18.990;2023-10-13T09:21:54;46.73;34.96;60.21;;
77134;Laerm;25175;50.140;18.990;2023-10-13T09:24:57;42.55;34.56;57.38;;
77134;Laerm;25175;50.140;18.990;2023-10-13T09:28:15;46.74;35.37;59.44;;
77134;Laerm;25175;50.140;18.990;2023-10-13T09:31:22;39.23;34.95;53.41;;
77134;Laerm;25175;50.140;18.990;2023-10-13T09:34:28;42.09;35.16;55.12;;
77134;Laerm;25175;50.140;18.990;2023-10-13T09:37:35;50.89;35.06;69.82;;
77134;Laerm;25175;50.140;18.990;2023-10-13T09:40:40;46.62;35.34;64.31;;
77134;Laerm;25175;50.140;18.990;2023-10-13T09:43:50;46.17;36.12;61.17;;
77134;Laerm;25175;50.140;18.990;2023-10-13T09:47:01;51.87;37.09;72.90;;
77134;Laerm;25175;50.140;18.990;2023-10-13T09:50:19;45.55;37.27;60.31;;
77134;Laerm;25175;50.140;18.990;2023-10-13T09:53:30;44.36;36.31;59.99;;
77134;Laerm;25175;50.140;18.990;2023-10-13T09:56:42;49.79;36.22;67.58;;
77134;Laerm;25175;50.140;18.990;2023-10-13T10:00:08;51.81;36.26;68.65;;
77134;Laerm;25175;50.140;18.990;2023-10-13T10:03:31;49.39;36.29;67.19;;
77134;Laerm;25175;50.140;18.990;2023-10-13T10:06:52;45.27;36.60;59.70;;
77134;Laerm;25175;50.140;18.990;2023-10-13T10:10:00;46.94;36.88;62.37;;
77134;Laerm;25175;50.140;18.990;2023-10-13T10:13:19;48.56;37.68;65.36;;
77134;Laerm;25175;50.140;18.990;2023-10-13T10:20:06;46.93;36.25;59.93;;
77134;Laerm;25175;50.140;18.990;2023-10-13T10:23:26;45.77;38.16;67.13;;
77134;Laerm;25175;50.140;18.990;2023-10-13T10:26:38;47.13;37.64;63.83;;
77134;Laerm;25175;50.140;18.990;2023-10-13T10:29:53;47.12;38.81;64.84;;
77134;Laerm;25175;50.140;18.990;2023-10-13T10:33:02;44.33;37.44;63.21;;
77134;Laerm;25175;50.140;18.990;2023-10-13T10:36:14;45.33;37.73;61.44;;
77134;Laerm;25175;50.140;18.990;2023-10-13T10:39:20;46.17;37.76;65.04;;
77134;Laerm;25175;50.140;18.990;2023-10-13T10:42:35;43.70;37.20;59.06;;
77134;Laerm;25175;50.140;18.990;2023-10-13T10:45:46;53.18;38.29;71.29;;
77134;Laerm;25175;50.140;18.990;2023-10-13T10:48:56;44.82;37.57;58.31;;
77134;Laerm;25175;50.140;18.990;2023-10-13T10:52:03;45.13;37.43;66.24;;
77134;Laerm;25175;50.140;18.990;2023-10-13T10:55:20;46.30;37.47;63.75;;
77134;Laerm;25175;50.140;18.990;2023-10-13T10:58:34;46.52;37.34;64.10;;
77134;Laerm;25175;50.140;18.990;2023-10-13T11:01:46;46.52;38.05;57.87;;
77134;Laerm;25175;50.140;18.990;2023-10-13T11:04:55;46.01;37.80;64.86;;
77134;Laerm;25175;50.140;18.990;2023-10-13T11:08:01;50.64;37.51;74.98;;
77134;Laerm;25175;50.140;18.990;2023-10-13T11:11:11;47.70;40.20;63.57;;
77134;Laerm;25175;50.140;18.990;2023-10-13T11:14:24;47.08;39.21;64.28;;
77134;Laerm;25175;50.140;18.990;2023-10-13T11:17:29;47.10;39.46;62.87;;
77134;Laerm;25175;50.140;18.990;2023-10-13T11:20:45;47.39;37.79;60.44;;
77134;Laerm;25175;50.140;18.990;2023-10-13T11:23:57;48.98;39.29;69.16;;
77134;Laerm;25175;50.140;18.990;2023-10-13T11:27:15;53.56;40.40;73.25;;
77134;Laerm;25175;50.140;18.990;2023-10-13T11:30:26;50.03;39.41;72.86;;
77134;Laerm;25175;50.140;18.990;2023-10-13T11:33:32;50.35;39.82;70.45;;
77134;Laerm;25175;50.140;18.990;2023-10-13T11:36:41;51.46;39.27;71.78;;
77134;Laerm;25175;50.140;18.990;2023-10-13T11:39:45;46.40;36.79;73.35;;
77134;Laerm;25175;50.140;18.990;2023-10-13T11:42:50;47.45;38.13;70.04;;
77134;Laerm;25175;50.140;18.990;2023-10-13T11:45:59;49.33;37.59;67.48;;
77134;Laerm;25175;50.140;18.990;2023-10-13T11:49:15;52.89;39.20;71.93;;
77134;Laerm;25175;50.140;18.990;2023-10-13T11:52:22;48.45;37.31;67.54;;
77134;Laerm;25175;50.140;18.990;2023-10-13T11:55:29;47.99;37.32;63.67;;
77134;Laerm;25175;50.140;18.990;2023-10-13T11:58:33;48.87;38.91;67.28;;
77134;Laerm;25175;50.140;18.990;2023-10-13T12:01:39;53.44;40.51;78.09;;
77134;Laerm;25175;50.140;18.990;2023-10-13T12:04:55;50.37;39.14;71.28;;
77134;Laerm;25175;50.140;18.990;2023-10-13T12:08:05;48.96;38.72;70.86;;
77134;Laerm;25175;50.140;18.990;2023-10-13T12:11:21;49.29;38.61;76.31;;
77134;Laerm;25175;50.140;18.990;2023-10-13T12:14:41;49.00;38.30;69.93;;
77134;Laerm;25175;50.140;18.990;2023-10-13T12:17:54;48.01;37.97;67.28;;
77134;Laerm;25175;50.140;18.990;2023-10-13T12:21:08;47.55;37.45;65.68;;
77134;Laerm;25175;50.140;18.990;2023-10-13T12:24:24;47.30;37.40;59.36;;
77134;Laerm;25175;50.140;18.990;2023-10-13T12:27:42;48.61;37.56;62.86;;
77134;Laerm;25175;50.140;18.990;2023-10-13T12:30:50;46.77;37.44;55.78;;
77134;Laerm;25175;50.140;18.990;2023-10-13T12:33:55;49.09;38.47;68.93;;
77134;Laerm;25175;50.140;18.990;2023-10-13T12:37:07;48.60;37.53;65.96;;
77134;Laerm;25175;50.140;18.990;2023-10-13T12:40:35;48.15;37.38;72.56;;
77134;Laerm;25175;50.140;18.990;2023-10-13T12:43:52;48.21;38.06;68.68;;
77134;Laerm;25175;50.140;18.990;2023-10-13T12:47:09;46.37;37.55;64.77;;
77134;Laerm;25175;50.140;18.990;2023-10-13T12:50:26;51.50;38.23;75.91;;
77134;Laerm;25175;50.140;18.990;2023-10-13T12:53:46;50.02;37.44;75.64;;
77134;Laerm;25175;50.140;18.990;2023-10-13T12:56:53;49.00;37.99;65.26;;
77134;Laerm;25175;50.140;18.990;2023-10-13T13:00:00;52.31;38.09;75.35;;
77134;Laerm;25175;50.140;18.990;2023-10-13T13:03:17;48.94;37.42;70.46;;
77134;Laerm;25175;50.140;18.990;2023-10-13T13:06:26;46.86;37.65;63.59;;
77134;Laerm;25175;50.140;18.990;2023-10-13T13:09:31;46.50;36.76;59.95;;
77134;Laerm;25175;50.140;18.990;2023-10-13T13:12:42;47.10;36.81;58.17;;
77134;Laerm;25175;50.140;18.990;2023-10-13T13:15:47;46.69;36.93;60.62;;
77134;Laerm;25175;50.140;18.990;2023-10-13T13:18:53;48.00;38.28;64.14;;
77134;Laerm;25175;50.140;18.990;2023-10-13T13:21:58;45.68;37.39;57.86;;
77134;Laerm;25175;50.140;18.990;2023-10-13T13:25:05;47.09;36.82;60.96;;
77134;Laerm;25175;50.140;18.990;2023-10-13T13:28:14;48.43;38.20;64.53;;
77134;Laerm;25175;50.140;18.990;2023-10-13T13:31:22;58.70;38.32;81.00;;
77134;Laerm;25175;50.140;18.990;2023-10-13T13:34:30;60.56;39.21;78.49;;
77134;Laerm;25175;50.140;18.990;2023-10-13T13:37:37;46.69;36.44;58.99;;
77134;Laerm;25175;50.140;18.990;2023-10-13T13:40:43;45.88;37.03;56.32;;
77134;Laerm;25175;50.140;18.990;2023-10-13T13:43:53;46.85;37.53;67.01;;
77134;Laerm;25175;50.140;18.990;2023-10-13T13:47:02;48.05;36.05;58.97;;
77134;Laerm;25175;50.140;18.990;2023-10-13T13:50:14;47.88;37.90;64.10;;
77134;Laerm;25175;50.140;18.990;2023-10-13T13:53:25;47.20;38.13;63.21;;
77134;Laerm;25175;50.140;18.990;2023-10-13T13:56:34;47.56;37.82;67.64;;
77134;Laerm;25175;50.140;18.990;2023-10-13T13:59:42;55.67;38.49;75.05;;
77134;Laerm;25175;50.140;18.990;2023-10-13T14:02:47;45.40;37.53;60.69;;
77134;Laerm;25175;50.140;18.990;2023-10-13T14:05:52;46.35;38.73;58.89;;
77134;Laerm;25175;50.140;18.990;2023-10-13T14:08:59;47.58;38.18;65.89;;
77134;Laerm;25175;50.140;18.990;2023-10-13T14:12:05;49.98;39.53;66.59;;
77134;Laerm;25175;50.140;18.990;2023-10-13T14:15:26;52.28;39.08;86.34;;
77134;Laerm;25175;50.140;18.990;2023-10-13T14:18:30;49.42;37.68;67.79;;
77134;Laerm;25175;50.140;18.990;2023-10-13T14:21:36;46.76;38.68;58.80;;
77134;Laerm;25175;50.140;18.990;2023-10-13T14:24:41;48.78;39.33;69.40;;
77134;Laerm;25175;50.140;18.990;2023-10-13T14:27:49;59.56;39.17;78.93;;
77134;Laerm;25175;50.140;18.990;2023-10-13T14:30:56;46.56;38.17;56.76;;
77134;Laerm;25175;50.140;18.990;2023-10-13T14:34:02;44.68;38.31;56.80;;
77134;Laerm;25175;50.140;18.990;2023-10-13T14:37:08;47.61;37.07;61.85;;
77134;Laerm;25175;50.140;18.990;2023-10-13T14:40:15;44.69;37.31;61.39;;
77134;Laerm;25175;50.140;18.990;2023-10-13T14:43:22;45.26;37.89;57.08;;
77134;Laerm;25175;50.140;18.990;2023-10-13T14:46:33;46.34;37.84;66.17;;
77134;Laerm;25175;50.140;18.990;2023-10-13T14:49:40;45.85;38.15;71.68;;
77134;Laerm;25175;50.140;18.990;2023-10-13T14:52:46;50.85;37.87;66.28;;
77134;Laerm;25175;50.140;18.990;2023-10-13T14:55:51;44.43;37.57;58.97;;
77134;Laerm;25175;50.140;18.990;2023-10-13T14:58:57;46.60;38.06;57.98;;
77134;Laerm;25175;50.140;18.990;2023-10-13T15:02:04;45.17;37.46;57.50;;
77134;Laerm;25175;50.140;18.990;2023-10-13T15:05:10;47.76;37.38;64.28;;
77134;Laerm;25175;50.140;18.990;2023-10-13T15:08:18;47.45;37.77;58.49;;
77134;Laerm;25175;50.140;18.990;2023-10-13T15:11:25;49.86;37.87;69.98;;
77134;Laerm;25175;50.140;18.990;2023-10-13T15:14:37;45.29;37.41;57.27;;
77134;Laerm;25175;50.140;18.990;2023-10-13T15:17:47;47.04;37.51;66.41;;
77134;Laerm;25175;50.140;18.990;2023-10-13T15:20:51;46.41;37.33;58.49;;
77134;Laerm;25175;50.140;18.990;2023-10-13T15:23:58;46.57;37.54;58.38;;
77134;Laerm;25175;50.140;18.990;2023-10-13T15:27:05;45.56;37.45;57.94;;
77134;Laerm;25175;50.140;18.990;2023-10-13T15:30:11;47.02;38.09;66.69;;
77134;Laerm;25175;50.140;18.990;2023-10-13T15:33:27;47.05;38.96;61.13;;
77134;Laerm;25175;50.140;18.990;2023-10-13T15:36:33;50.73;38.98;67.95;;
77134;Laerm;25175;50.140;18.990;2023-10-13T15:39:40;47.88;37.46;61.97;;
77134;Laerm;25175;50.140;18.990;2023-10-13T15:42:45;45.47;37.75;57.19;;
77134;Laerm;25175;50.140;18.990;2023-10-13T15:45:50;48.22;38.22;61.28;;
77134;Laerm;25175;50.140;18.990;2023-10-13T15:48:58;46.22;37.75;57.71;;
77134;Laerm;25175;50.140;18.990;2023-10-13T15:52:04;60.29;37.35;80.25;;
77134;Laerm;25175;50.140;18.990;2023-10-13T15:55:12;44.12;37.48;57.77;;
77134;Laerm;25175;50.140;18.990;2023-10-13T15:58:18;46.23;37.85;59.18;;
77134;Laerm;25175;50.140;18.990;2023-10-13T16:01:24;58.20;38.27;76.81;;
77134;Laerm;25175;50.140;18.990;2023-10-13T16:04:31;46.54;38.40;71.77;;
77134;Laerm;25175;50.140;18.990;2023-10-13T16:07:36;46.67;39.47;58.65;;
77134;Laerm;25175;50.140;18.990;2023-10-13T16:10:41;44.63;37.66;60.14;;
77134;Laerm;25175;50.140;18.990;2023-10-13T16:13:48;48.08;38.83;62.41;;
77134;Laerm;25175;50.140;18.990;2023-10-13T16:16:53;47.81;38.51;71.43;;
77134;Laerm;25175;50.140;18.990;2023-10-13T16:20:01;48.09;38.47;62.82;;
77134;Laerm;25175;50.140;18.990;2023-10-13T16:23:13;44.41;38.15;57.16;;
77134;Laerm;25175;50.140;18.990;2023-10-13T16:26:19;45.69;38.46;70.58;;
77134;Laerm;25175;50.140;18.990;2023-10-13T16:29:24;45.02;38.67;57.06;;
77134;Laerm;25175;50.140;18.990;2023-10-13T16:32:33;46.00;38.88;59.76;;
77134;Laerm;25175;50.140;18.990;2023-10-13T16:35:42;47.83;38.83;63.81;;
77134;Laerm;25175;50.140;18.990;2023-10-13T16:38:49;46.88;38.36;66.35;;
77134;Laerm;25175;50.140;18.990;2023-10-13T16:41:53;45.57;38.51;60.01;;
77134;Laerm;25175;50.140;18.990;2023-10-13T16:44:58;47.62;39.14;59.99;;
77134;Laerm;25175;50.140;18.990;2023-10-13T16:48:15;45.81;39.30;60.84;;
77134;Laerm;25175;50.140;18.990;2023-10-13T16:51:24;47.26;39.53;61.30;;
77134;Laerm;25175;50.140;18.990;2023-10-13T16:54:30;45.34;39.22;58.12;;
77134;Laerm;25175;50.140;18.990;2023-10-13T16:57:36;46.92;38.81;62.31;;
77134;Laerm;25175;50.140;18.990;2023-10-13T17:00:41;44.34;38.07;55.14;;
77134;Laerm;25175;50.140;18.990;2023-10-13T17:03:53;44.37;37.50;58.30;;
77134;Laerm;25175;50.140;18.990;2023-10-13T17:07:00;45.69;37.65;56.88;;
77134;Laerm;25175;50.140;18.990;2023-10-13T17:10:07;44.80;38.27;56.34;;
77134;Laerm;25175;50.140;18.990;2023-10-13T17:13:12;45.66;37.96;62.47;;
77134;Laerm;25175;50.140;18.990;2023-10-13T17:16:20;43.29;38.04;53.36;;
77134;Laerm;25175;50.140;18.990;2023-10-13T17:19:25;44.99;37.71;57.61;;
77134;Laerm;25175;50.140;18.990;2023-10-13T17:22:33;44.63;37.79;58.00;;
77134;Laerm;25175;50.140;18.990;2023-10-13T17:25:40;44.54;37.72;61.11;;
77134;Laerm;25175;50.140;18.990;2023-10-13T17:28:45;48.39;37.94;66.06;;
77134;Laerm;25175;50.140;18.990;2023-10-13T17:31:50;44.67;38.53;56.17;;
77134;Laerm;25175;50.140;18.990;2023-10-13T17:34:55;46.12;38.45;57.29;;